Time;durP1;ratioP1;P1;durP2;ratioP2;P2;SDS_P1;SDS_P2;PMS_P1;PMS_P2;Temp;Humidity;BMP_temperature;BMP_pressure;BME280_temperature;BME280_humidity;BME280_pressure;Samples;Min_cycle;Max_cycle;Signal;HPM_P1;HPM_P2
2022/12/16 00:01:20;;;;;;;;;;;;;;;-2.49;53.05;99920.56;4776718;29;10378;-72
2022/12/16 00:03:48;;;;;;;;;;;;;;;-2.53;53.04;99914.34;4763355;29;8553;-72
2022/12/16 00:06:15;;;;;;;;;;;;;;;-2.55;52.26;99919.25;4768919;29;7368;-72
2022/12/16 00:08:41;;;;;;;;;;;;;;;-2.57;52.35;99917.34;4787160;29;7272;-72
2022/12/16 00:11:07;;;;;;;;;;;;;;;-2.60;52.18;99912.06;4801550;29;6789;-72
2022/12/16 00:13:35;;;;;;;;;;;;;;;-2.63;52.53;99911.75;4787205;29;7004;-72
2022/12/16 00:16:12;;;;;;;;;;;;;;;-2.64;52.60;99910.88;4785492;29;6869;-72
2022/12/16 00:18:39;;;;;;;;;;;;;;;-2.66;53.02;99907.31;4783673;29;8054;-72
2022/12/16 00:21:06;;;;;;;;;;;;;;;-2.65;53.41;99914.13;4785705;29;6822;-72
2022/12/16 00:23:32;;;;;;;;;;;;;;;-2.62;53.09;99933.59;4785162;29;6801;-72
2022/12/16 00:25:58;;;;;;;;;;;;;;;-2.62;53.20;99919.44;4784262;29;6828;-72
2022/12/16 00:28:25;;;;;;;;;;;;;;;-2.59;52.80;99917.19;4798545;29;7372;-72
2022/12/16 00:30:53;;;;;;;;;;;;;;;-2.56;53.96;99919.09;4781266;29;6833;-72
2022/12/16 00:33:21;;;;;;;;;;;;;;;-2.51;53.62;99910.41;4764896;29;7070;-72
2022/12/16 00:35:47;;;;;;;;;;;;;;;-2.41;53.82;99919.63;4772250;29;6793;-72
2022/12/16 00:38:14;;;;;;;;;;;;;;;-2.34;54.11;99924.47;4793074;29;7162;-72
2022/12/16 00:40:39;;;;;;;;;;;;;;;-2.28;53.13;99921.66;4781347;29;8801;-72
2022/12/16 00:43:06;;;;;;;;;;;;;;;-2.27;53.22;99924.31;4780283;29;7352;-72
2022/12/16 00:45:31;;;;;;;;;;;;;;;-2.29;53.36;99928.28;4772064;29;7048;-72
2022/12/16 00:47:57;;;;;;;;;;;;;;;-2.32;52.60;99930.53;4777071;29;6926;-72
2022/12/16 00:50:23;;;;;;;;;;;;;;;-2.35;52.33;99930.25;4800202;29;7313;-72
2022/12/16 00:52:49;;;;;;;;;;;;;;;-2.40;52.66;99932.34;4798036;29;6781;-72
2022/12/16 00:55:16;;;;;;;;;;;;;;;-2.45;52.98;99933.53;4794720;29;7028;-72
2022/12/16 00:57:42;;;;;;;;;;;;;;;-2.49;52.55;99925.56;4796431;29;6797;-72
2022/12/16 01:00:11;;;;;;;;;;;;;;;-2.54;52.79;99933.56;4782919;29;6993;-72
2022/12/16 01:02:40;;;;;;;;;;;;;;;-2.57;52.86;99937.41;4760717;29;13350;-72
2022/12/16 01:05:08;;;;;;;;;;;;;;;-2.60;52.86;99942.16;4761555;29;7762;-72
2022/12/16 01:07:33;;;;;;;;;;;;;;;-2.66;52.48;99942.44;4773466;29;6989;-72
2022/12/16 01:09:59;;;;;;;;;;;;;;;-2.71;52.24;99937.00;4776124;29;7327;-72
2022/12/16 01:12:25;;;;;;;;;;;;;;;-2.75;52.54;99945.00;4779019;29;7290;-72
2022/12/16 01:14:50;;;;;;;;;;;;;;;-2.79;52.35;99940.44;4796401;29;6848;-72
2022/12/16 01:17:16;;;;;;;;;;;;;;;-2.83;52.81;99946.81;4791660;29;6765;-72
2022/12/16 01:19:41;;;;;;;;;;;;;;;-2.86;52.11;99936.47;4778545;29;6801;-72
2022/12/16 01:22:07;;;;;;;;;;;;;;;-2.87;53.00;99943.84;4799014;29;6777;-72
2022/12/16 01:24:33;;;;;;;;;;;;;;;-2.88;51.95;99952.13;4787615;29;8647;-72
2022/12/16 01:26:59;;;;;;;;;;;;;;;-2.91;52.33;99956.84;4787911;29;7135;-72
2022/12/16 01:29:24;;;;;;;;;;;;;;;-2.95;52.22;99958.16;4782837;29;6789;-72
2022/12/16 01:31:50;;;;;;;;;;;;;;;-2.99;52.75;99954.50;4790855;29;6934;-72
2022/12/16 01:34:16;;;;;;;;;;;;;;;-3.00;52.82;99955.22;4798941;29;6868;-72
2022/12/16 01:36:43;;;;;;;;;;;;;;;-3.01;52.98;99962.63;4770301;29;8651;-72
2022/12/16 01:39:09;;;;;;;;;;;;;;;-3.01;52.36;99953.47;4775759;29;6793;-72
2022/12/16 01:41:36;;;;;;;;;;;;;;;-3.01;53.30;99958.47;4784950;29;8577;-72
2022/12/16 01:44:13;;;;;;;;;;;;;;;-2.95;53.45;99971.59;4770807;29;8706;-72
2022/12/16 01:46:42;;;;;;;;;;;;;;;-2.94;53.22;99975.00;4781182;29;7376;-72
2022/12/16 01:49:28;;;;;;;;;;;;;;;-2.91;53.22;99981.91;4784391;29;7020;-72
2022/12/16 01:52:01;;;;;;;;;;;;;;;-2.90;52.54;99987.09;4782604;29;6877;-72
2022/12/16 01:54:37;;;;;;;;;;;;;;;-2.89;52.67;99981.31;4778060;29;7028;-72
2022/12/16 01:57:10;;;;;;;;;;;;;;;-2.91;53.21;99971.88;4780643;29;8761;-72
2022/12/16 01:59:42;;;;;;;;;;;;;;;-2.91;52.90;99981.91;4797861;29;7161;-72
2022/12/16 02:02:09;;;;;;;;;;;;;;;-2.94;52.12;99980.91;4781082;29;7216;-72
2022/12/16 02:05:19;;;;;;;;;;;;;;;-2.94;52.39;99987.56;4782055;29;6876;-72
2022/12/16 02:07:20;;;;;;;;;;;;;;;-2.95;52.68;99981.63;4793932;29;7219;-72
2022/12/16 02:09:46;;;;;;;;;;;;;;;-2.95;52.88;99978.22;4795486;29;7399;-72
2022/12/16 02:12:44;;;;;;;;;;;;;;;-2.97;52.58;99975.59;4783555;29;6904;-72
2022/12/16 02:15:58;;;;;;;;;;;;;;;-2.98;52.75;99973.84;4792588;29;6821;-72
2022/12/16 02:19:00;;;;;;;;;;;;;;;-2.98;52.71;99978.84;4790292;29;6845;-72
2022/12/16 02:21:47;;;;;;;;;;;;;;;-2.96;53.59;99986.50;4793772;29;8707;-72
2022/12/16 02:24:48;;;;;;;;;;;;;;;-2.94;53.46;99982.53;4787870;29;6817;-72
2022/12/16 02:27:57;;;;;;;;;;;;;;;-2.93;52.89;99987.69;4782604;29;6984;-72
2022/12/16 02:31:19;;;;;;;;;;;;;;;-2.91;53.24;99974.38;4786492;29;8311;-72
2022/12/16 02:33:59;;;;;;;;;;;;;;;-2.91;52.71;99979.41;4795644;29;8501;-72
2022/12/16 02:37:08;;;;;;;;;;;;;;;-2.90;53.16;99981.16;4805024;29;8693;-72
2022/12/16 02:39:45;;;;;;;;;;;;;;;-2.90;53.26;99982.06;4789124;29;6833;-72
2022/12/16 02:42:33;;;;;;;;;;;;;;;-2.91;53.24;99990.34;4772403;29;6999;-72
2022/12/16 02:45:16;;;;;;;;;;;;;;;-2.94;52.34;99985.91;4789590;29;7352;-72
2022/12/16 02:47:44;;;;;;;;;;;;;;;-2.95;52.84;99990.78;4783377;29;6813;-72
2022/12/16 02:50:32;;;;;;;;;;;;;;;-2.98;52.43;99996.41;4796113;29;6809;-72
2022/12/16 02:53:00;;;;;;;;;;;;;;;-3.01;52.00;99995.22;4768698;29;7274;-72
2022/12/16 02:56:39;;;;;;;;;;;;;;;-3.03;52.92;99991.69;4780391;29;6861;-72
2022/12/16 02:59:10;;;;;;;;;;;;;;;-3.09;52.81;99999.47;4775358;29;6821;-72
2022/12/16 03:02:03;;;;;;;;;;;;;;;-3.11;52.22;100000.97;4797528;29;6832;-72
2022/12/16 03:04:48;;;;;;;;;;;;;;;-3.14;52.02;100001.59;4779058;29;6833;-72
2022/12/16 03:07:19;;;;;;;;;;;;;;;-3.18;52.04;99998.63;4791175;29;7909;-72
2022/12/16 03:09:48;;;;;;;;;;;;;;;-3.23;52.69;99999.06;4776435;29;6801;-72
2022/12/16 03:12:18;;;;;;;;;;;;;;;-3.25;52.99;99992.13;4781733;29;6809;-72
2022/12/16 03:14:51;;;;;;;;;;;;;;;-3.26;52.94;99988.75;4773186;29;6978;-73
2022/12/16 03:17:22;;;;;;;;;;;;;;;-3.26;52.62;99991.25;4781287;29;6984;-73
2022/12/16 03:20:06;;;;;;;;;;;;;;;-3.26;53.22;99996.25;4781852;29;9074;-73
2022/12/16 03:22:38;;;;;;;;;;;;;;;-3.25;53.00;99995.53;4786277;29;6853;-71
2022/12/16 03:25:06;;;;;;;;;;;;;;;-3.23;53.49;99998.19;4791027;29;6994;-71
2022/12/16 03:27:48;;;;;;;;;;;;;;;-3.21;52.81;99991.69;4774692;29;7254;-71
2022/12/16 03:30:25;;;;;;;;;;;;;;;-3.18;52.85;99993.63;4794813;29;7021;-71
2022/12/16 03:33:06;;;;;;;;;;;;;;;-3.13;53.57;99998.34;4775055;29;6825;-71
2022/12/16 03:35:44;;;;;;;;;;;;;;;-3.07;53.15;99998.03;4780793;29;7915;-71
2022/12/16 03:38:13;;;;;;;;;;;;;;;-3.01;54.06;99995.22;4788649;29;7020;-71
2022/12/16 03:40:43;;;;;;;;;;;;;;;-2.94;53.65;99993.44;4786154;29;6809;-71
2022/12/16 03:43:15;;;;;;;;;;;;;;;-2.83;54.42;99991.97;4780410;29;7188;-71
2022/12/16 03:45:44;;;;;;;;;;;;;;;-2.72;53.93;99997.97;4782825;29;7871;-71
2022/12/16 03:48:13;;;;;;;;;;;;;;;-2.63;54.28;100008.00;4759224;29;6879;-72
2022/12/16 03:50:39;;;;;;;;;;;;;;;-2.56;53.74;100004.44;4775759;29;6850;-71
2022/12/16 03:53:06;;;;;;;;;;;;;;;-2.49;53.29;100010.91;4781696;29;8589;-71
2022/12/16 03:55:32;;;;;;;;;;;;;;;-2.48;53.30;100012.66;4777880;29;7083;-71
2022/12/16 03:57:58;;;;;;;;;;;;;;;-2.49;53.37;100006.78;4789003;29;7189;-71
2022/12/16 04:00:25;;;;;;;;;;;;;;;-2.50;53.41;100015.06;4779869;29;6992;-71
2022/12/16 04:02:51;;;;;;;;;;;;;;;-2.52;52.55;100022.44;4781882;29;6801;-71
2022/12/16 04:05:18;;;;;;;;;;;;;;;-2.54;53.32;100025.53;4776644;29;6793;-71
2022/12/16 04:07:44;;;;;;;;;;;;;;;-2.58;52.92;100020.97;4798917;29;6835;-71
2022/12/16 04:10:10;;;;;;;;;;;;;;;-2.61;52.20;100018.16;4792050;29;7841;-71
2022/12/16 04:29:22;;;;;;;;;;;;;;;-2.61;52.91;100040.75;4795263;29;6817;-71
2022/12/16 04:31:48;;;;;;;;;;;;;;;-2.62;53.63;100042.38;4802121;29;6789;-72
2022/12/16 04:34:26;;;;;;;;;;;;;;;-2.65;52.92;100050.50;4801492;29;6840;-71
